sensor_id;sensor_type;location;lat;lon;timestamp;P1;durP1;ratioP1;P2;durP2;ratioP2
56242;SDS011;42155;53.096;23.226;2023-08-06T00:00:24;19.27;;;12.10;;
56242;SDS011;42155;53.096;23.226;2023-08-06T00:02:25;17.85;;;11.50;;
56242;SDS011;42155;53.096;23.226;2023-08-06T00:04:25;18.98;;;12.52;;
56242;SDS011;42155;53.096;23.226;2023-08-06T00:06:26;20.65;;;12.98;;
56242;SDS011;42155;53.096;23.226;2023-08-06T00:08:27;18.23;;;12.07;;
56242;SDS011;42155;53.096;23.226;2023-08-06T00:10:28;23.75;;;12.52;;
56242;SDS011;42155;53.096;23.226;2023-08-06T00:12:28;15.13;;;10.95;;
56242;SDS011;42155;53.096;23.226;2023-08-06T00:14:28;14.80;;;11.60;;
56242;SDS011;42155;53.096;23.226;2023-08-06T00:16:29;14.23;;;11.05;;
56242;SDS011;42155;53.096;23.226;2023-08-06T00:18:29;18.48;;;11.18;;
56242;SDS011;42155;53.096;23.226;2023-08-06T00:20:29;18.92;;;11.45;;
56242;SDS011;42155;53.096;23.226;2023-08-06T00:22:33;15.20;;;10.88;;
56242;SDS011;42155;53.096;23.226;2023-08-06T00:24:34;14.60;;;10.80;;
56242;SDS011;42155;53.096;23.226;2023-08-06T00:26:35;17.20;;;10.82;;
56242;SDS011;42155;53.096;23.226;2023-08-06T00:28:35;16.60;;;11.77;;
56242;SDS011;42155;53.096;23.226;2023-08-06T00:30:35;18.40;;;12.05;;
56242;SDS011;42155;53.096;23.226;2023-08-06T00:32:36;15.48;;;10.98;;
56242;SDS011;42155;53.096;23.226;2023-08-06T00:34:36;14.02;;;11.10;;
56242;SDS011;42155;53.096;23.226;2023-08-06T00:36:36;19.35;;;10.75;;
56242;SDS011;42155;53.096;23.226;2023-08-06T00:38:37;16.35;;;10.43;;
56242;SDS011;42155;53.096;23.226;2023-08-06T00:40:37;19.10;;;12.15;;
56242;SDS011;42155;53.096;23.226;2023-08-06T00:42:37;17.17;;;11.13;;
56242;SDS011;42155;53.096;23.226;2023-08-06T00:44:38;14.15;;;10.05;;
56242;SDS011;42155;53.096;23.226;2023-08-06T00:46:39;18.02;;;11.23;;
56242;SDS011;42155;53.096;23.226;2023-08-06T00:48:39;17.70;;;12.07;;
56242;SDS011;42155;53.096;23.226;2023-08-06T00:50:41;19.17;;;13.10;;
56242;SDS011;42155;53.096;23.226;2023-08-06T00:52:42;19.52;;;12.07;;
56242;SDS011;42155;53.096;23.226;2023-08-06T00:54:42;15.43;;;12.00;;
56242;SDS011;42155;53.096;23.226;2023-08-06T00:56:43;14.68;;;11.23;;
56242;SDS011;42155;53.096;23.226;2023-08-06T00:58:43;14.30;;;10.00;;
56242;SDS011;42155;53.096;23.226;2023-08-06T01:00:45;14.68;;;10.68;;
56242;SDS011;42155;53.096;23.226;2023-08-06T01:02:45;18.58;;;11.30;;
56242;SDS011;42155;53.096;23.226;2023-08-06T01:04:46;17.50;;;12.45;;
56242;SDS011;42155;53.096;23.226;2023-08-06T01:06:52;21.98;;;12.55;;
56242;SDS011;42155;53.096;23.226;2023-08-06T01:14:08;15.85;;;10.90;;
56242;SDS011;42155;53.096;23.226;2023-08-06T01:16:17;16.75;;;12.23;;
56242;SDS011;42155;53.096;23.226;2023-08-06T01:18:18;18.75;;;11.68;;
56242;SDS011;42155;53.096;23.226;2023-08-06T01:20:18;17.60;;;10.90;;
56242;SDS011;42155;53.096;23.226;2023-08-06T01:22:19;15.20;;;11.25;;
56242;SDS011;42155;53.096;23.226;2023-08-06T01:24:19;20.83;;;11.60;;
56242;SDS011;42155;53.096;23.226;2023-08-06T01:30:33;15.82;;;10.85;;
56242;SDS011;42155;53.096;23.226;2023-08-06T01:32:35;14.00;;;10.45;;
56242;SDS011;42155;53.096;23.226;2023-08-06T01:34:39;14.07;;;10.73;;
56242;SDS011;42155;53.096;23.226;2023-08-06T01:36:42;15.27;;;11.02;;
56242;SDS011;42155;53.096;23.226;2023-08-06T01:38:43;14.50;;;9.85;;
56242;SDS011;42155;53.096;23.226;2023-08-06T01:40:44;12.98;;;9.90;;
56242;SDS011;42155;53.096;23.226;2023-08-06T01:42:44;13.88;;;10.00;;
56242;SDS011;42155;53.096;23.226;2023-08-06T01:44:45;14.93;;;10.45;;
56242;SDS011;42155;53.096;23.226;2023-08-06T01:46:45;19.38;;;10.63;;
56242;SDS011;42155;53.096;23.226;2023-08-06T01:48:45;12.82;;;9.65;;
56242;SDS011;42155;53.096;23.226;2023-08-06T01:50:46;13.88;;;10.40;;
56242;SDS011;42155;53.096;23.226;2023-08-06T01:52:46;17.63;;;9.88;;
56242;SDS011;42155;53.096;23.226;2023-08-06T01:54:46;17.80;;;10.85;;
56242;SDS011;42155;53.096;23.226;2023-08-06T01:56:47;16.13;;;10.93;;
56242;SDS011;42155;53.096;23.226;2023-08-06T01:58:47;16.92;;;10.55;;
56242;SDS011;42155;53.096;23.226;2023-08-06T02:00:47;14.98;;;10.55;;
56242;SDS011;42155;53.096;23.226;2023-08-06T02:02:48;14.10;;;10.65;;
56242;SDS011;42155;53.096;23.226;2023-08-06T02:04:48;14.52;;;11.10;;
56242;SDS011;42155;53.096;23.226;2023-08-06T02:06:48;13.75;;;10.77;;
56242;SDS011;42155;53.096;23.226;2023-08-06T02:08:49;15.82;;;10.98;;
56242;SDS011;42155;53.096;23.226;2023-08-06T02:10:50;15.00;;;10.18;;
56242;SDS011;42155;53.096;23.226;2023-08-06T02:12:50;19.73;;;10.93;;
56242;SDS011;42155;53.096;23.226;2023-08-06T02:14:50;13.35;;;10.38;;
56242;SDS011;42155;53.096;23.226;2023-08-06T02:16:51;15.13;;;10.38;;
56242;SDS011;42155;53.096;23.226;2023-08-06T02:18:51;16.60;;;10.57;;
56242;SDS011;42155;53.096;23.226;2023-08-06T02:20:54;16.63;;;10.35;;
56242;SDS011;42155;53.096;23.226;2023-08-06T02:22:58;13.38;;;10.70;;
56242;SDS011;42155;53.096;23.226;2023-08-06T02:24:59;13.40;;;11.13;;
56242;SDS011;42155;53.096;23.226;2023-08-06T02:26:59;15.32;;;10.52;;
56242;SDS011;42155;53.096;23.226;2023-08-06T02:28:59;19.92;;;11.57;;
56242;SDS011;42155;53.096;23.226;2023-08-06T02:31:00;15.80;;;10.07;;
56242;SDS011;42155;53.096;23.226;2023-08-06T02:33:00;15.20;;;10.98;;
56242;SDS011;42155;53.096;23.226;2023-08-06T02:35:01;13.52;;;9.55;;
56242;SDS011;42155;53.096;23.226;2023-08-06T02:37:02;18.65;;;10.63;;
56242;SDS011;42155;53.096;23.226;2023-08-06T02:39:02;14.55;;;10.70;;
56242;SDS011;42155;53.096;23.226;2023-08-06T02:41:03;16.33;;;11.27;;
56242;SDS011;42155;53.096;23.226;2023-08-06T02:43:04;16.55;;;10.82;;
56242;SDS011;42155;53.096;23.226;2023-08-06T02:45:04;14.70;;;10.55;;
56242;SDS011;42155;53.096;23.226;2023-08-06T02:47:05;14.35;;;10.68;;
56242;SDS011;42155;53.096;23.226;2023-08-06T02:49:06;18.55;;;10.98;;
56242;SDS011;42155;53.096;23.226;2023-08-06T02:51:06;13.00;;;10.50;;
56242;SDS011;42155;53.096;23.226;2023-08-06T02:53:07;15.27;;;11.10;;
56242;SDS011;42155;53.096;23.226;2023-08-06T02:55:07;15.10;;;10.50;;
56242;SDS011;42155;53.096;23.226;2023-08-06T02:57:08;12.55;;;10.77;;
56242;SDS011;42155;53.096;23.226;2023-08-06T02:59:08;14.65;;;10.73;;
56242;SDS011;42155;53.096;23.226;2023-08-06T03:01:09;17.90;;;11.23;;
56242;SDS011;42155;53.096;23.226;2023-08-06T03:03:09;17.13;;;12.00;;
56242;SDS011;42155;53.096;23.226;2023-08-06T03:05:09;16.02;;;11.65;;
56242;SDS011;42155;53.096;23.226;2023-08-06T03:07:10;14.95;;;11.13;;
56242;SDS011;42155;53.096;23.226;2023-08-06T03:09:10;15.90;;;10.77;;
56242;SDS011;42155;53.096;23.226;2023-08-06T03:11:11;16.40;;;10.90;;
56242;SDS011;42155;53.096;23.226;2023-08-06T03:13:11;14.18;;;10.77;;
56242;SDS011;42155;53.096;23.226;2023-08-06T03:15:11;17.98;;;11.18;;
56242;SDS011;42155;53.096;23.226;2023-08-06T03:17:12;18.85;;;10.75;;
56242;SDS011;42155;53.096;23.226;2023-08-06T03:19:12;13.15;;;10.85;;
56242;SDS011;42155;53.096;23.226;2023-08-06T03:21:13;14.23;;;10.85;;
56242;SDS011;42155;53.096;23.226;2023-08-06T03:23:13;13.13;;;10.63;;
56242;SDS011;42155;53.096;23.226;2023-08-06T03:25:13;18.73;;;10.75;;
56242;SDS011;42155;53.096;23.226;2023-08-06T03:27:14;17.50;;;11.75;;
56242;SDS011;42155;53.096;23.226;2023-08-06T03:29:14;17.05;;;11.05;;
56242;SDS011;42155;53.096;23.226;2023-08-06T03:31:14;15.60;;;11.10;;
56242;SDS011;42155;53.096;23.226;2023-08-06T03:33:15;14.13;;;10.43;;
56242;SDS011;42155;53.096;23.226;2023-08-06T03:35:15;16.95;;;10.98;;
56242;SDS011;42155;53.096;23.226;2023-08-06T03:37:15;15.40;;;11.05;;
56242;SDS011;42155;53.096;23.226;2023-08-06T03:39:16;16.20;;;10.65;;
56242;SDS011;42155;53.096;23.226;2023-08-06T03:41:16;15.65;;;11.25;;
56242;SDS011;42155;53.096;23.226;2023-08-06T03:43:16;16.10;;;10.65;;
56242;SDS011;42155;53.096;23.226;2023-08-06T03:45:17;16.48;;;10.73;;
56242;SDS011;42155;53.096;23.226;2023-08-06T03:47:17;19.83;;;11.05;;
56242;SDS011;42155;53.096;23.226;2023-08-06T03:49:17;13.55;;;10.38;;
56242;SDS011;42155;53.096;23.226;2023-08-06T03:51:18;15.15;;;10.57;;
56242;SDS011;42155;53.096;23.226;2023-08-06T03:53:18;14.32;;;10.10;;
56242;SDS011;42155;53.096;23.226;2023-08-06T03:55:18;13.38;;;9.90;;
56242;SDS011;42155;53.096;23.226;2023-08-06T03:57:19;15.48;;;9.80;;
56242;SDS011;42155;53.096;23.226;2023-08-06T03:59:19;15.80;;;9.40;;
56242;SDS011;42155;53.096;23.226;2023-08-06T04:01:19;13.65;;;9.30;;
56242;SDS011;42155;53.096;23.226;2023-08-06T04:03:20;10.98;;;8.82;;
56242;SDS011;42155;53.096;23.226;2023-08-06T04:05:20;12.15;;;8.63;;
56242;SDS011;42155;53.096;23.226;2023-08-06T04:07:21;9.98;;;7.70;;
56242;SDS011;42155;53.096;23.226;2023-08-06T04:09:21;14.73;;;7.97;;
56242;SDS011;42155;53.096;23.226;2023-08-06T04:11:21;12.57;;;7.60;;
56242;SDS011;42155;53.096;23.226;2023-08-06T04:13:22;9.48;;;7.55;;
56242;SDS011;42155;53.096;23.226;2023-08-06T04:15:22;15.23;;;7.45;;
56242;SDS011;42155;53.096;23.226;2023-08-06T04:17:23;14.07;;;7.30;;
56242;SDS011;42155;53.096;23.226;2023-08-06T04:19:23;9.95;;;7.32;;
56242;SDS011;42155;53.096;23.226;2023-08-06T04:21:23;12.93;;;7.25;;
56242;SDS011;42155;53.096;23.226;2023-08-06T04:23:24;8.30;;;6.63;;
56242;SDS011;42155;53.096;23.226;2023-08-06T04:25:24;12.65;;;6.65;;
56242;SDS011;42155;53.096;23.226;2023-08-06T04:27:25;9.57;;;7.10;;
56242;SDS011;42155;53.096;23.226;2023-08-06T04:29:25;8.30;;;6.88;;
56242;SDS011;42155;53.096;23.226;2023-08-06T04:31:28;10.63;;;6.90;;
56242;SDS011;42155;53.096;23.226;2023-08-06T04:33:29;8.55;;;6.57;;
56242;SDS011;42155;53.096;23.226;2023-08-06T04:35:29;9.68;;;7.07;;
56242;SDS011;42155;53.096;23.226;2023-08-06T04:37:29;11.38;;;6.20;;
56242;SDS011;42155;53.096;23.226;2023-08-06T04:39:30;8.18;;;6.22;;
56242;SDS011;42155;53.096;23.226;2023-08-06T04:41:30;15.45;;;6.82;;
56242;SDS011;42155;53.096;23.226;2023-08-06T04:43:30;9.50;;;7.10;;
56242;SDS011;42155;53.096;23.226;2023-08-06T04:45:31;11.00;;;6.90;;
56242;SDS011;42155;53.096;23.226;2023-08-06T04:47:31;11.27;;;6.10;;
56242;SDS011;42155;53.096;23.226;2023-08-06T04:49:31;8.43;;;6.40;;
56242;SDS011;42155;53.096;23.226;2023-08-06T04:51:32;12.75;;;6.18;;
56242;SDS011;42155;53.096;23.226;2023-08-06T04:53:32;10.63;;;7.00;;
56242;SDS011;42155;53.096;23.226;2023-08-06T04:55:32;8.98;;;5.90;;
56242;SDS011;42155;53.096;23.226;2023-08-06T04:57:33;13.00;;;6.57;;
56242;SDS011;42155;53.096;23.226;2023-08-06T04:59:33;10.65;;;6.75;;
56242;SDS011;42155;53.096;23.226;2023-08-06T05:01:34;11.65;;;6.47;;
56242;SDS011;42155;53.096;23.226;2023-08-06T05:03:34;9.73;;;6.47;;
56242;SDS011;42155;53.096;23.226;2023-08-06T05:05:34;11.63;;;6.60;;
56242;SDS011;42155;53.096;23.226;2023-08-06T05:07:35;10.65;;;6.57;;
56242;SDS011;42155;53.096;23.226;2023-08-06T05:09:35;10.15;;;5.95;;
56242;SDS011;42155;53.096;23.226;2023-08-06T05:11:35;10.10;;;6.50;;
56242;SDS011;42155;53.096;23.226;2023-08-06T05:13:36;7.95;;;6.32;;
56242;SDS011;42155;53.096;23.226;2023-08-06T05:15:36;11.07;;;6.40;;
56242;SDS011;42155;53.096;23.226;2023-08-06T05:17:36;13.50;;;6.60;;
56242;SDS011;42155;53.096;23.226;2023-08-06T05:19:37;11.32;;;6.40;;
56242;SDS011;42155;53.096;23.226;2023-08-06T05:21:37;11.07;;;6.03;;
56242;SDS011;42155;53.096;23.226;2023-08-06T05:23:37;14.73;;;6.45;;
56242;SDS011;42155;53.096;23.226;2023-08-06T05:25:38;7.82;;;5.93;;
56242;SDS011;42155;53.096;23.226;2023-08-06T05:27:38;7.85;;;5.45;;
56242;SDS011;42155;53.096;23.226;2023-08-06T05:29:38;10.68;;;6.10;;
56242;SDS011;42155;53.096;23.226;2023-08-06T05:31:39;8.65;;;6.35;;
56242;SDS011;42155;53.096;23.226;2023-08-06T05:33:39;8.77;;;6.22;;
56242;SDS011;42155;53.096;23.226;2023-08-06T05:35:40;8.05;;;5.90;;
56242;SDS011;42155;53.096;23.226;2023-08-06T05:37:41;10.55;;;6.00;;
56242;SDS011;42155;53.096;23.226;2023-08-06T05:39:41;8.27;;;6.38;;
56242;SDS011;42155;53.096;23.226;2023-08-06T05:41:41;13.60;;;6.43;;
56242;SDS011;42155;53.096;23.226;2023-08-06T05:43:42;12.00;;;5.97;;
56242;SDS011;42155;53.096;23.226;2023-08-06T05:45:45;11.40;;;6.35;;
56242;SDS011;42155;53.096;23.226;2023-08-06T05:47:47;9.70;;;6.05;;
56242;SDS011;42155;53.096;23.226;2023-08-06T05:49:48;8.68;;;5.80;;
56242;SDS011;42155;53.096;23.226;2023-08-06T05:51:48;6.85;;;6.07;;
56242;SDS011;42155;53.096;23.226;2023-08-06T05:53:48;10.00;;;5.63;;
56242;SDS011;42155;53.096;23.226;2023-08-06T05:55:49;8.13;;;5.90;;
56242;SDS011;42155;53.096;23.226;2023-08-06T05:57:50;7.85;;;5.20;;
56242;SDS011;42155;53.096;23.226;2023-08-06T05:59:50;10.20;;;6.15;;
56242;SDS011;42155;53.096;23.226;2023-08-06T06:01:50;10.93;;;6.03;;
56242;SDS011;42155;53.096;23.226;2023-08-06T06:03:51;11.95;;;5.57;;
56242;SDS011;42155;53.096;23.226;2023-08-06T06:05:51;9.13;;;5.65;;
56242;SDS011;42155;53.096;23.226;2023-08-06T06:07:51;10.00;;;5.85;;
56242;SDS011;42155;53.096;23.226;2023-08-06T06:09:52;7.70;;;5.57;;
56242;SDS011;42155;53.096;23.226;2023-08-06T06:11:52;7.32;;;5.50;;
56242;SDS011;42155;53.096;23.226;2023-08-06T06:13:52;7.28;;;5.68;;
56242;SDS011;42155;53.096;23.226;2023-08-06T06:15:56;8.80;;;5.18;;
56242;SDS011;42155;53.096;23.226;2023-08-06T06:17:56;8.48;;;5.40;;
56242;SDS011;42155;53.096;23.226;2023-08-06T06:19:57;8.48;;;5.40;;
56242;SDS011;42155;53.096;23.226;2023-08-06T06:21:57;12.40;;;5.47;;
56242;SDS011;42155;53.096;23.226;2023-08-06T06:23:57;8.18;;;5.80;;
56242;SDS011;42155;53.096;23.226;2023-08-06T06:25:57;8.80;;;4.90;;
56242;SDS011;42155;53.096;23.226;2023-08-06T06:27:58;9.85;;;5.80;;
56242;SDS011;42155;53.096;23.226;2023-08-06T06:29:58;6.43;;;5.43;;
56242;SDS011;42155;53.096;23.226;2023-08-06T06:31:58;7.68;;;5.68;;
56242;SDS011;42155;53.096;23.226;2023-08-06T06:33:59;9.77;;;5.55;;
56242;SDS011;42155;53.096;23.226;2023-08-06T06:35:59;6.75;;;5.53;;
56242;SDS011;42155;53.096;23.226;2023-08-06T06:37:59;8.48;;;5.15;;
56242;SDS011;42155;53.096;23.226;2023-08-06T06:40:00;7.43;;;5.20;;
56242;SDS011;42155;53.096;23.226;2023-08-06T06:42:00;7.55;;;5.15;;
56242;SDS011;42155;53.096;23.226;2023-08-06T06:44:00;7.68;;;5.20;;
56242;SDS011;42155;53.096;23.226;2023-08-06T06:46:01;7.57;;;5.40;;
56242;SDS011;42155;53.096;23.226;2023-08-06T06:48:01;7.28;;;5.22;;
56242;SDS011;42155;53.096;23.226;2023-08-06T06:50:02;6.97;;;5.25;;
56242;SDS011;42155;53.096;23.226;2023-08-06T06:52:02;7.13;;;5.20;;
56242;SDS011;42155;53.096;23.226;2023-08-06T06:54:03;8.35;;;4.80;;
56242;SDS011;42155;53.096;23.226;2023-08-06T06:56:03;8.90;;;5.10;;
56242;SDS011;42155;53.096;23.226;2023-08-06T06:58:04;9.57;;;5.38;;
56242;SDS011;42155;53.096;23.226;2023-08-06T07:00:05;11.82;;;5.45;;
56242;SDS011;42155;53.096;23.226;2023-08-06T07:02:06;8.23;;;5.30;;
56242;SDS011;42155;53.096;23.226;2023-08-06T07:04:06;8.63;;;5.22;;
56242;SDS011;42155;53.096;23.226;2023-08-06T07:06:06;8.98;;;5.35;;
56242;SDS011;42155;53.096;23.226;2023-08-06T07:08:07;11.82;;;5.55;;
56242;SDS011;42155;53.096;23.226;2023-08-06T07:10:07;9.88;;;5.72;;
56242;SDS011;42155;53.096;23.226;2023-08-06T07:12:08;8.73;;;5.47;;
56242;SDS011;42155;53.096;23.226;2023-08-06T07:14:08;7.90;;;5.43;;
56242;SDS011;42155;53.096;23.226;2023-08-06T07:16:08;11.52;;;6.07;;
56242;SDS011;42155;53.096;23.226;2023-08-06T07:18:09;12.95;;;5.32;;
56242;SDS011;42155;53.096;23.226;2023-08-06T07:20:09;9.82;;;5.53;;
56242;SDS011;42155;53.096;23.226;2023-08-06T07:22:10;8.50;;;5.50;;
56242;SDS011;42155;53.096;23.226;2023-08-06T07:24:10;7.50;;;5.38;;
56242;SDS011;42155;53.096;23.226;2023-08-06T07:26:10;9.15;;;6.00;;
56242;SDS011;42155;53.096;23.226;2023-08-06T07:28:11;9.70;;;5.90;;
56242;SDS011;42155;53.096;23.226;2023-08-06T07:30:11;7.88;;;5.00;;
56242;SDS011;42155;53.096;23.226;2023-08-06T07:32:11;12.43;;;5.88;;
56242;SDS011;42155;53.096;23.226;2023-08-06T07:34:12;8.10;;;5.20;;
56242;SDS011;42155;53.096;23.226;2023-08-06T07:36:13;9.93;;;6.00;;
56242;SDS011;42155;53.096;23.226;2023-08-06T07:38:24;11.27;;;5.78;;
56242;SDS011;42155;53.096;23.226;2023-08-06T07:40:27;12.27;;;5.57;;
56242;SDS011;42155;53.096;23.226;2023-08-06T07:42:28;7.47;;;5.40;;
56242;SDS011;42155;53.096;23.226;2023-08-06T07:44:29;8.68;;;5.85;;
56242;SDS011;42155;53.096;23.226;2023-08-06T07:46:29;9.93;;;5.97;;
56242;SDS011;42155;53.096;23.226;2023-08-06T07:48:29;12.75;;;6.25;;
56242;SDS011;42155;53.096;23.226;2023-08-06T07:50:30;13.52;;;5.60;;
56242;SDS011;42155;53.096;23.226;2023-08-06T07:52:30;7.22;;;5.60;;
56242;SDS011;42155;53.096;23.226;2023-08-06T07:54:31;9.85;;;5.85;;
56242;SDS011;42155;53.096;23.226;2023-08-06T07:56:31;13.07;;;6.10;;
56242;SDS011;42155;53.096;23.226;2023-08-06T07:58:31;9.18;;;6.18;;
56242;SDS011;42155;53.096;23.226;2023-08-06T08:00:32;10.38;;;5.82;;
56242;SDS011;42155;53.096;23.226;2023-08-06T08:02:32;10.77;;;6.10;;
56242;SDS011;42155;53.096;23.226;2023-08-06T08:04:32;10.02;;;5.78;;
56242;SDS011;42155;53.096;23.226;2023-08-06T08:06:33;11.50;;;5.97;;
56242;SDS011;42155;53.096;23.226;2023-08-06T08:08:33;9.05;;;6.40;;
56242;SDS011;42155;53.096;23.226;2023-08-06T08:10:34;12.07;;;6.28;;
56242;SDS011;42155;53.096;23.226;2023-08-06T08:12:35;10.27;;;6.40;;
56242;SDS011;42155;53.096;23.226;2023-08-06T08:14:35;12.40;;;6.25;;
56242;SDS011;42155;53.096;23.226;2023-08-06T08:16:37;8.65;;;6.53;;
56242;SDS011;42155;53.096;23.226;2023-08-06T08:18:39;10.57;;;6.20;;
56242;SDS011;42155;53.096;23.226;2023-08-06T08:20:39;8.73;;;6.28;;
56242;SDS011;42155;53.096;23.226;2023-08-06T08:22:40;7.40;;;5.85;;
56242;SDS011;42155;53.096;23.226;2023-08-06T08:24:40;10.73;;;6.43;;
56242;SDS011;42155;53.096;23.226;2023-08-06T08:26:40;10.38;;;6.30;;
56242;SDS011;42155;53.096;23.226;2023-08-06T08:28:41;11.05;;;6.30;;
56242;SDS011;42155;53.096;23.226;2023-08-06T08:30:41;10.48;;;6.35;;
56242;SDS011;42155;53.096;23.226;2023-08-06T08:32:41;10.85;;;5.95;;
56242;SDS011;42155;53.096;23.226;2023-08-06T08:34:42;10.43;;;6.45;;
56242;SDS011;42155;53.096;23.226;2023-08-06T08:36:42;9.35;;;6.32;;
56242;SDS011;42155;53.096;23.226;2023-08-06T08:38:42;9.45;;;5.85;;
56242;SDS011;42155;53.096;23.226;2023-08-06T08:40:45;10.35;;;6.30;;
56242;SDS011;42155;53.096;23.226;2023-08-06T08:42:46;11.10;;;6.38;;
56242;SDS011;42155;53.096;23.226;2023-08-06T08:44:47;8.20;;;5.93;;
56242;SDS011;42155;53.096;23.226;2023-08-06T08:46:47;7.93;;;5.45;;
56242;SDS011;42155;53.096;23.226;2023-08-06T08:48:48;11.27;;;6.22;;
56242;SDS011;42155;53.096;23.226;2023-08-06T08:50:49;9.15;;;6.03;;
56242;SDS011;42155;53.096;23.226;2023-08-06T08:52:50;13.35;;;5.93;;
56242;SDS011;42155;53.096;23.226;2023-08-06T08:54:50;9.27;;;6.20;;
56242;SDS011;42155;53.096;23.226;2023-08-06T08:56:51;8.73;;;6.32;;
56242;SDS011;42155;53.096;23.226;2023-08-06T08:58:52;10.23;;;6.07;;
56242;SDS011;42155;53.096;23.226;2023-08-06T09:00:52;10.38;;;6.00;;
56242;SDS011;42155;53.096;23.226;2023-08-06T09:02:53;10.25;;;6.20;;
56242;SDS011;42155;53.096;23.226;2023-08-06T09:04:55;9.70;;;5.95;;
56242;SDS011;42155;53.096;23.226;2023-08-06T09:06:58;9.18;;;6.13;;
56242;SDS011;42155;53.096;23.226;2023-08-06T09:09:06;10.10;;;6.72;;
56242;SDS011;42155;53.096;23.226;2023-08-06T09:11:12;13.55;;;6.28;;
56242;SDS011;42155;53.096;23.226;2023-08-06T09:13:12;12.40;;;6.40;;
56242;SDS011;42155;53.096;23.226;2023-08-06T09:15:13;13.18;;;6.68;;
56242;SDS011;42155;53.096;23.226;2023-08-06T09:17:13;8.93;;;6.38;;
56242;SDS011;42155;53.096;23.226;2023-08-06T09:19:13;9.20;;;6.10;;
56242;SDS011;42155;53.096;23.226;2023-08-06T09:21:14;9.70;;;6.22;;
56242;SDS011;42155;53.096;23.226;2023-08-06T09:23:15;8.30;;;6.60;;
56242;SDS011;42155;53.096;23.226;2023-08-06T09:25:22;11.85;;;6.40;;
56242;SDS011;42155;53.096;23.226;2023-08-06T09:27:24;10.25;;;6.32;;
56242;SDS011;42155;53.096;23.226;2023-08-06T09:29:30;11.02;;;6.43;;
56242;SDS011;42155;53.096;23.226;2023-08-06T09:31:44;11.45;;;6.80;;
56242;SDS011;42155;53.096;23.226;2023-08-06T09:33:48;11.68;;;6.70;;
56242;SDS011;42155;53.096;23.226;2023-08-06T09:35:49;10.80;;;6.38;;
56242;SDS011;42155;53.096;23.226;2023-08-06T09:37:50;9.73;;;5.90;;
56242;SDS011;42155;53.096;23.226;2023-08-06T09:39:51;8.63;;;5.63;;
56242;SDS011;42155;53.096;23.226;2023-08-06T09:41:55;7.80;;;6.07;;
56242;SDS011;42155;53.096;23.226;2023-08-06T09:43:56;10.75;;;6.38;;
56242;SDS011;42155;53.096;23.226;2023-08-06T09:45:57;7.30;;;5.65;;
56242;SDS011;42155;53.096;23.226;2023-08-06T09:47:57;9.48;;;6.13;;
56242;SDS011;42155;53.096;23.226;2023-08-06T09:49:58;9.10;;;6.05;;
56242;SDS011;42155;53.096;23.226;2023-08-06T09:51:58;9.30;;;6.10;;
56242;SDS011;42155;53.096;23.226;2023-08-06T09:53:59;10.20;;;6.55;;
56242;SDS011;42155;53.096;23.226;2023-08-06T09:56:01;9.63;;;6.32;;
56242;SDS011;42155;53.096;23.226;2023-08-06T09:58:02;7.60;;;6.05;;
56242;SDS011;42155;53.096;23.226;2023-08-06T10:00:02;11.43;;;5.85;;
56242;SDS011;42155;53.096;23.226;2023-08-06T10:02:03;11.35;;;6.00;;
56242;SDS011;42155;53.096;23.226;2023-08-06T10:04:13;8.82;;;6.28;;
56242;SDS011;42155;53.096;23.226;2023-08-06T10:06:14;10.15;;;6.00;;
56242;SDS011;42155;53.096;23.226;2023-08-06T10:08:15;10.88;;;6.00;;
56242;SDS011;42155;53.096;23.226;2023-08-06T10:10:15;12.65;;;5.65;;
56242;SDS011;42155;53.096;23.226;2023-08-06T10:12:16;10.50;;;5.90;;
56242;SDS011;42155;53.096;23.226;2023-08-06T10:14:33;11.68;;;5.75;;
56242;SDS011;42155;53.096;23.226;2023-08-06T10:16:36;10.40;;;5.88;;
56242;SDS011;42155;53.096;23.226;2023-08-06T10:18:38;10.05;;;5.82;;
56242;SDS011;42155;53.096;23.226;2023-08-06T10:20:39;10.02;;;5.60;;
56242;SDS011;42155;53.096;23.226;2023-08-06T10:22:43;10.70;;;5.10;;
56242;SDS011;42155;53.096;23.226;2023-08-06T10:24:50;11.15;;;5.32;;
56242;SDS011;42155;53.096;23.226;2023-08-06T10:26:53;7.65;;;5.78;;
56242;SDS011;42155;53.096;23.226;2023-08-06T10:28:58;12.25;;;5.60;;
56242;SDS011;42155;53.096;23.226;2023-08-06T10:30:58;9.18;;;5.32;;
56242;SDS011;42155;53.096;23.226;2023-08-06T10:32:59;10.07;;;5.50;;
56242;SDS011;42155;53.096;23.226;2023-08-06T10:35:01;8.93;;;5.05;;
56242;SDS011;42155;53.096;23.226;2023-08-06T10:37:01;10.93;;;5.53;;
56242;SDS011;42155;53.096;23.226;2023-08-06T10:39:02;9.40;;;5.13;;
56242;SDS011;42155;53.096;23.226;2023-08-06T10:41:03;9.50;;;5.20;;
56242;SDS011;42155;53.096;23.226;2023-08-06T10:43:04;8.85;;;5.03;;
56242;SDS011;42155;53.096;23.226;2023-08-06T10:47:27;8.77;;;5.00;;
56242;SDS011;42155;53.096;23.226;2023-08-06T10:49:27;10.45;;;5.18;;
56242;SDS011;42155;53.096;23.226;2023-08-06T10:51:28;12.13;;;5.72;;
56242;SDS011;42155;53.096;23.226;2023-08-06T10:53:28;11.48;;;5.30;;
56242;SDS011;42155;53.096;23.226;2023-08-06T10:55:29;8.90;;;5.30;;
56242;SDS011;42155;53.096;23.226;2023-08-06T10:57:29;8.40;;;5.38;;
56242;SDS011;42155;53.096;23.226;2023-08-06T10:59:29;10.45;;;5.68;;
56242;SDS011;42155;53.096;23.226;2023-08-06T11:01:30;9.65;;;5.85;;
56242;SDS011;42155;53.096;23.226;2023-08-06T11:03:33;11.60;;;5.50;;
56242;SDS011;42155;53.096;23.226;2023-08-06T11:05:34;10.63;;;5.53;;
56242;SDS011;42155;53.096;23.226;2023-08-06T11:07:35;10.18;;;5.30;;
56242;SDS011;42155;53.096;23.226;2023-08-06T11:09:37;8.68;;;5.60;;
56242;SDS011;42155;53.096;23.226;2023-08-06T11:11:37;10.15;;;5.93;;
56242;SDS011;42155;53.096;23.226;2023-08-06T11:13:37;14.88;;;5.57;;
56242;SDS011;42155;53.096;23.226;2023-08-06T11:15:38;15.55;;;5.90;;
56242;SDS011;42155;53.096;23.226;2023-08-06T11:17:39;9.20;;;5.57;;
56242;SDS011;42155;53.096;23.226;2023-08-06T11:19:41;9.00;;;5.38;;
56242;SDS011;42155;53.096;23.226;2023-08-06T11:21:41;8.65;;;4.90;;
56242;SDS011;42155;53.096;23.226;2023-08-06T11:23:43;10.38;;;5.53;;
56242;SDS011;42155;53.096;23.226;2023-08-06T11:25:46;8.07;;;5.45;;
56242;SDS011;42155;53.096;23.226;2023-08-06T11:27:47;11.63;;;5.85;;
56242;SDS011;42155;53.096;23.226;2023-08-06T11:29:47;10.35;;;5.32;;
56242;SDS011;42155;53.096;23.226;2023-08-06T11:31:47;10.52;;;5.85;;
56242;SDS011;42155;53.096;23.226;2023-08-06T11:33:49;14.75;;;5.60;;
56242;SDS011;42155;53.096;23.226;2023-08-06T11:35:54;8.43;;;5.40;;
56242;SDS011;42155;53.096;23.226;2023-08-06T11:37:56;11.70;;;5.35;;
56242;SDS011;42155;53.096;23.226;2023-08-06T11:39:56;9.75;;;5.47;;
56242;SDS011;42155;53.096;23.226;2023-08-06T11:41:56;10.80;;;5.47;;
56242;SDS011;42155;53.096;23.226;2023-08-06T11:43:57;12.50;;;5.65;;
56242;SDS011;42155;53.096;23.226;2023-08-06T11:45:58;10.52;;;5.03;;
56242;SDS011;42155;53.096;23.226;2023-08-06T11:47:58;9.20;;;5.28;;
56242;SDS011;42155;53.096;23.226;2023-08-06T11:49:59;12.32;;;5.40;;
56242;SDS011;42155;53.096;23.226;2023-08-06T11:51:59;10.07;;;5.35;;
56242;SDS011;42155;53.096;23.226;2023-08-06T11:53:59;10.13;;;4.82;;
56242;SDS011;42155;53.096;23.226;2023-08-06T11:56:00;10.02;;;5.00;;
56242;SDS011;42155;53.096;23.226;2023-08-06T11:58:03;11.57;;;5.05;;